Bay Port, New York
Current Conditions -  °F | °C
As of 8:56 PM on Sunday 25 Jan 2015 (Local Time) from KISP Reporting Station
Overcast Overcast  
Wind Chill: -4°   Ceiling: 16000
Heat Index:   Visibility: 10mi
Dew Point: -9°   Wind: 7mph
Humidity: 52%   Direction: 340°NNW
Pressure: 29.94"   Gusts: NA
Location:  40.746°N, 73.0539°W
Report Text: KISP 260156Z 34006KT 10SM FEW080 BKN160 OVC260 00/M09 A2994 RMK AO2 SLP140 T00001089
Loading
Personal Weather Stations






























Interactive Weather Map New forecast layout! Learn more

10-Day Weather Forecast

Advertisements
Track Severe Weather on mobile